Time;durP1;ratioP1;P1;durP2;ratioP2;P2;SDS_P1;SDS_P2;PMS_P1;PMS_P2;Temp;Humidity;BMP_temperature;BMP_pressure;BME280_temperature;BME280_humidity;BME280_pressure;Samples;Min_cycle;Max_cycle;Signal;HPM_P1;HPM_P2
2021/07/05 00:00:38;;;;;;;6.70;3.42;;;;;;;17.30;82.91;98025.88;5024842;28;20040;-59
2021/07/05 00:03:03;;;;;;;11.60;10.35;;;;;;;17.29;82.91;98016.38;5018633;28;20068;-60
2021/07/05 00:05:29;;;;;;;24.58;22.17;;;;;;;17.31;82.09;98024.06;5017966;28;20042;-59
2021/07/05 00:07:54;;;;;;;5.93;3.22;;;;;;;17.40;80.89;98031.53;5029360;28;20022;-60
2021/07/05 00:10:22;;;;;;;5.53;3.03;;;;;;;17.42;81.29;98047.13;5024175;28;20044;-60
2021/07/05 00:12:49;;;;;;;5.85;3.20;;;;;;;17.25;82.36;98047.50;5021759;28;20052;-60
2021/07/05 00:15:19;;;;;;;6.30;3.05;;;;;;;16.89;82.28;98003.22;5024477;28;20021;-60
2021/07/05 00:17:46;;;;;;;6.93;6.22;;;;;;;17.08;82.39;98035.75;5011215;28;20545;-60
2021/07/05 00:20:12;;;;;;;6.28;2.97;;;;;;;17.09;82.03;98046.06;5018123;28;20434;-60
2021/07/05 00:22:37;;;;;;;5.97;3.22;;;;;;;16.84;82.60;98009.06;5020270;28;20029;-60
2021/07/05 00:25:04;;;;;;;5.45;3.55;;;;;;;17.01;82.81;98043.66;5016256;28;20060;-60
2021/07/05 00:27:30;;;;;;;5.53;3.13;;;;;;;17.01;82.93;98041.03;5019985;28;20022;-59
2021/07/05 00:29:55;;;;;;;7.63;6.82;;;;;;;17.01;82.75;98041.03;5021002;28;20038;-59
2021/07/05 00:32:20;;;;;;;7.07;5.45;;;;;;;16.98;83.06;98038.78;5017187;28;20028;-60
2021/07/05 00:34:47;;;;;;;7.97;6.28;;;;;;;16.93;83.03;98038.56;5018184;28;20037;-59
2021/07/05 00:37:12;;;;;;;5.57;4.75;;;;;;;16.84;83.41;98047.66;5020578;28;20029;-60
2021/07/05 00:39:37;;;;;;;9.45;8.65;;;;;;;16.82;83.52;98041.75;5015667;28;20687;-60
2021/07/05 00:42:03;;;;;;;7.10;3.25;;;;;;;16.91;83.07;98054.53;5020070;28;20032;-59
2021/07/05 00:44:28;;;;;;;5.90;4.10;;;;;;;16.91;83.39;98065.03;5020533;28;20052;-59
2021/07/05 00:46:53;;;;;;;6.32;3.13;;;;;;;16.67;84.19;98036.69;5021468;28;20075;-60
2021/07/05 00:49:19;;;;;;;5.90;3.30;;;;;;;16.96;84.22;98069.69;5019719;28;20644;-59
2021/07/05 00:51:45;;;;;;;5.72;3.97;;;;;;;16.95;83.07;98059.38;5016338;28;20052;-60
2021/07/05 00:54:11;;;;;;;5.15;3.08;;;;;;;16.64;82.64;98034.44;5013308;28;20148;-60
2021/07/05 00:56:36;;;;;;;6.45;2.70;;;;;;;16.89;81.93;98069.66;5011919;28;20127;-59
2021/07/05 00:59:02;;;;;;;6.88;3.00;;;;;;;16.97;82.53;98079.19;5018419;28;20021;-60
2021/07/05 01:01:28;;;;;;;4.45;2.78;;;;;;;16.95;82.39;98075.94;5025637;28;20041;-59
2021/07/05 01:03:53;;;;;;;5.47;3.10;;;;;;;16.72;82.50;98036.91;5022141;28;20683;-60
2021/07/05 01:06:18;;;;;;;7.30;2.83;;;;;;;16.93;83.11;98070.09;5021140;28;20109;-61
2021/07/05 01:08:44;;;;;;;4.85;2.72;;;;;;;16.78;81.94;98072.84;5019844;28;20026;-60
2021/07/05 01:11:10;;;;;;;5.63;2.65;;;;;;;16.43;81.97;98036.19;5018287;28;20057;-60
2021/07/05 01:13:35;;;;;;;4.35;2.60;;;;;;;16.53;83.60;98077.81;5019403;28;20041;-60
2021/07/05 01:16:01;;;;;;;5.57;2.42;;;;;;;16.50;82.96;98078.19;5012360;28;20041;-59
2021/07/05 01:18:27;;;;;;;5.80;5.18;;;;;;;16.43;83.34;98074.75;5028555;28;20018;-60
2021/07/05 01:20:53;;;;;;;5.57;2.90;;;;;;;16.39;82.97;98073.50;5022013;28;20525;-59
2021/07/05 01:23:18;;;;;;;6.40;3.78;;;;;;;16.44;84.04;98078.97;5018102;28;20032;-59
2021/07/05 01:25:44;;;;;;;8.85;7.97;;;;;;;16.15;83.97;98028.38;5013209;28;20657;-59
2021/07/05 01:28:10;;;;;;;4.82;2.88;;;;;;;16.38;83.77;98069.28;5018189;28;20106;-60
2021/07/05 01:30:35;;;;;;;11.57;10.25;;;;;;;16.37;83.58;98072.88;5017921;28;20045;-60
2021/07/05 01:33:07;;;;;;;31.70;29.52;;;;;;;16.15;83.77;98012.66;5022643;28;20025;-59
2021/07/05 01:35:33;;;;;;;5.38;4.07;;;;;;;16.41;83.78;98034.75;5025035;28;20034;-59
2021/07/05 01:37:59;;;;;;;5.00;4.15;;;;;;;16.37;83.85;98023.84;5023513;28;20052;-60
2021/07/05 01:40:26;;;;;;;15.98;14.70;;;;;;;16.06;84.22;97969.25;5018591;28;20037;-60
2021/07/05 01:42:56;;;;;;;6.60;4.80;;;;;;;16.15;84.35;97970.69;5036537;28;20033;-59
2021/07/05 01:45:25;;;;;;;18.45;17.05;;;;;;;16.30;83.89;97994.97;5017925;28;20476;-59
2021/07/05 01:47:51;;;;;;;;;;;;;;;16.42;84.13;97997.03;5016314;28;20025;-60
2021/07/05 01:50:16;;;;;;;8.50;7.70;;;;;;;16.17;83.41;97958.19;5037696;28;19916;-59
2021/07/05 01:52:42;;;;;;;25.65;23.95;;;;;;;16.49;82.91;98019.66;5015990;28;20257;-59
2021/07/05 01:55:08;;;;;;;13.90;12.85;;;;;;;16.21;82.86;97954.19;5020700;28;20112;-59
2021/07/05 01:57:35;;;;;;;5.30;4.40;;;;;;;16.50;82.14;98030.94;5018761;28;20026;-59
2021/07/05 02:00:04;;;;;;;13.50;12.45;;;;;;;16.28;81.94;98002.25;5022058;28;20116;-59
2021/07/05 02:02:29;;;;;;;35.35;32.42;;;;;;;16.56;81.64;97993.44;5017762;28;20588;-59
2021/07/05 02:04:55;;;;;;;13.23;12.25;;;;;;;16.88;82.08;98026.06;5010845;28;20029;-59
2021/07/05 02:07:21;;;;;;;48.15;44.25;;;;;;;16.88;82.17;98019.97;5017460;28;20628;-59
2021/07/05 02:09:47;;;;;;;15.68;14.43;;;;;;;16.97;80.95;98018.78;5017854;28;20103;-59
2021/07/05 02:12:13;;;;;;;12.27;11.32;;;;;;;16.92;80.57;98013.34;5022084;28;20029;-59
2021/07/05 02:14:40;;;;;;;52.53;48.40;;;;;;;16.86;80.80;98029.88;5033969;28;20438;-59
2021/07/05 02:17:08;;;;;;;28.45;26.55;;;;;;;16.94;79.94;98032.31;5020584;28;20109;-60
2021/07/05 02:19:33;;;;;;;9.90;9.10;;;;;;;16.88;80.50;98009.47;5019743;28;20095;-59
2021/07/05 02:21:59;;;;;;;14.23;13.05;;;;;;;16.82;80.26;97992.69;5021241;28;20018;-59
2021/07/05 02:24:24;;;;;;;43.70;40.90;;;;;;;16.92;80.45;98039.59;5018567;28;20033;-59
2021/07/05 02:26:50;;;;;;;54.10;50.35;;;;;;;16.95;79.75;98039.19;5010000;28;20026;-59
2021/07/05 02:29:15;;;;;;;71.65;66.07;;;;;;;16.70;79.26;97994.25;5010001;28;20034;-60
2021/07/05 02:31:41;;;;;;;21.65;20.38;;;;;;;16.99;78.69;98045.66;5018115;28;20747;-59
2021/07/05 02:34:06;;;;;;;34.85;32.45;;;;;;;16.95;80.18;98041.00;5012891;28;20602;-59
2021/07/05 02:36:32;;;;;;;5.57;2.50;;;;;;;17.03;78.06;98038.19;5015313;28;20033;-59
2021/07/05 02:38:58;;;;;;;4.07;2.03;;;;;;;17.00;77.80;98028.91;5018704;28;20075;-59
2021/07/05 02:41:23;;;;;;;3.90;2.00;;;;;;;17.03;78.37;98018.00;5022554;28;20484;-59
2021/07/05 02:43:48;;;;;;;7.75;6.97;;;;;;;17.06;76.74;98019.41;5020553;28;20051;-60
2021/07/05 02:46:14;;;;;;;11.40;10.52;;;;;;;17.10;76.68;98016.19;5017686;28;20049;-60
2021/07/05 02:48:40;;;;;;;5.03;1.88;;;;;;;16.77;76.80;97991.66;5017190;28;20739;-59
2021/07/05 02:51:07;;;;;;;23.73;21.77;;;;;;;17.06;74.83;98014.94;5015624;28;20037;-59
2021/07/05 02:53:32;;;;;;;24.45;22.83;;;;;;;17.08;76.27;98028.72;5018509;28;20053;-59
2021/07/05 02:55:58;;;;;;;9.32;8.63;;;;;;;16.72;75.43;97982.56;5013080;28;20033;-59
2021/07/05 02:58:24;;;;;;;5.80;5.15;;;;;;;16.97;76.52;98039.78;5017670;28;20588;-59
2021/07/05 03:00:52;;;;;;;4.97;3.50;;;;;;;16.68;76.24;98002.34;5012896;28;20026;-59
2021/07/05 03:03:18;;;;;;;4.18;3.75;;;;;;;17.03;74.77;98038.19;5032667;28;20687;-60
2021/07/05 03:05:43;;;;;;;23.15;21.77;;;;;;;17.10;73.21;98041.63;5011688;28;20026;-60
2021/07/05 03:08:09;;;;;;;3.30;1.60;;;;;;;17.27;68.21;98036.81;5010136;28;20064;-60
2021/07/05 03:10:36;;;;;;;7.20;6.57;;;;;;;16.93;72.39;98008.88;5019619;28;20035;-60
2021/07/05 03:13:04;;;;;;;31.40;29.27;;;;;;;17.00;72.52;98051.72;5014610;28;20047;-59
2021/07/05 03:15:30;;;;;;;8.18;7.13;;;;;;;17.01;72.62;98059.41;5008757;28;20057;-59
2021/07/05 03:17:56;;;;;;;5.90;5.05;;;;;;;16.88;71.45;98025.22;5020658;28;20076;-59
2021/07/05 03:20:25;;;;;;;3.50;1.83;;;;;;;17.02;72.06;98049.72;5034211;28;20486;-60
2021/07/05 03:22:51;;;;;;;6.32;5.82;;;;;;;16.99;72.16;98058.78;5023554;28;20025;-59
2021/07/05 03:25:19;;;;;;;4.90;3.33;;;;;;;16.92;73.80;98063.22;5017772;28;20021;-59
2021/07/05 03:27:45;;;;;;;4.00;2.17;;;;;;;16.73;70.06;98013.06;5032940;28;20053;-59
2021/07/05 03:30:12;;;;;;;5.78;1.65;;;;;;;17.15;69.72;98069.94;5037736;28;20112;-61
2021/07/05 03:32:38;;;;;;;3.10;1.45;;;;;;;17.13;69.20;98057.00;5024071;28;20049;-61
2021/07/05 03:35:06;;;;;;;4.30;2.00;;;;;;;17.12;69.32;98059.81;5018007;28;20057;-61
2021/07/05 03:37:31;;;;;;;4.47;1.30;;;;;;;17.01;69.44;98054.16;5022837;28;20071;-61
2021/07/05 03:39:57;;;;;;;5.20;1.60;;;;;;;16.83;68.79;98025.84;5021818;28;20456;-61
2021/07/05 03:42:22;;;;;;;4.03;1.67;;;;;;;17.17;67.86;98062.66;5033923;28;20036;-61
2021/07/05 03:44:48;;;;;;;7.53;1.85;;;;;;;17.16;68.09;98061.84;5017413;28;20128;-60
2021/07/05 03:47:13;;;;;;;6.65;1.25;;;;;;;17.02;69.50;98065.47;5020446;28;20108;-60
2021/07/05 03:49:39;;;;;;;3.97;2.55;;;;;;;17.05;67.87;98060.63;5016436;28;20026;-61
2021/07/05 03:52:05;;;;;;;4.38;2.20;;;;;;;17.08;66.73;98041.84;5022078;28;20095;-61
2021/07/05 03:54:30;;;;;;;6.25;1.58;;;;;;;17.12;66.36;98044.84;5030080;28;20113;-60
2021/07/05 03:56:56;;;;;;;3.92;1.25;;;;;;;17.23;67.58;98041.66;5019534;28;20136;-60
2021/07/05 03:59:22;;;;;;;3.35;1.20;;;;;;;17.17;67.58;98041.63;5014007;28;20029;-61
2021/07/05 04:01:47;;;;;;;5.00;1.30;;;;;;;17.13;66.79;98024.66;5015676;28;20026;-60
2021/07/05 04:04:13;;;;;;;2.85;1.20;;;;;;;17.23;66.34;98041.66;5022294;28;20091;-61
2021/07/05 04:06:38;;;;;;;4.85;1.73;;;;;;;17.19;67.56;98045.66;5017649;28;20030;-61
2021/07/05 04:09:05;;;;;;;4.03;1.20;;;;;;;17.13;68.06;98048.31;5022557;28;20017;-60
2021/07/05 04:11:31;;;;;;;5.07;1.35;;;;;;;16.86;68.68;98007.03;5019527;28;20060;-60
2021/07/05 04:13:57;;;;;;;3.83;1.60;;;;;;;17.05;71.89;98050.13;5020370;28;20459;-60
2021/07/05 04:16:24;;;;;;;5.13;1.98;;;;;;;16.90;73.09;98055.56;5037398;28;20037;-61
2021/07/05 04:18:49;;;;;;;3.95;1.30;;;;;;;16.89;73.38;98071.50;5032058;28;20393;-61
2021/07/05 04:21:15;;;;;;;3.92;1.60;;;;;;;16.86;73.45;98074.50;5022141;28;20025;-61
2021/07/05 04:23:40;;;;;;;4.03;1.30;;;;;;;16.52;74.04;98040.25;5025456;28;20771;-60
2021/07/05 04:26:06;;;;;;;5.18;1.92;;;;;;;16.68;74.12;98065.34;5019580;28;20045;-61
2021/07/05 04:28:31;;;;;;;3.90;1.33;;;;;;;16.82;74.83;98079.31;5018384;28;20570;-60
2021/07/05 04:30:57;;;;;;;3.30;1.38;;;;;;;16.83;75.64;98073.09;5017204;28;20037;-61
2021/07/05 04:33:23;;;;;;;5.47;2.25;;;;;;;16.83;75.74;98067.03;5020144;28;20068;-60
2021/07/05 04:35:48;;;;;;;7.07;2.05;;;;;;;16.79;75.65;98068.41;5018957;28;20140;-61
2021/07/05 04:38:14;;;;;;;3.58;2.03;;;;;;;16.60;76.02;98064.72;5022184;28;20112;-61
2021/07/05 04:40:41;;;;;;;4.20;2.53;;;;;;;16.66;76.50;98074.41;5034845;28;20042;-61
2021/07/05 04:43:06;;;;;;;3.90;1.70;;;;;;;16.34;76.50;98029.50;5020562;28;20057;-61
2021/07/05 04:45:33;;;;;;;4.00;1.70;;;;;;;16.59;76.58;98063.09;5011101;28;20430;-61
2021/07/05 04:48:01;;;;;;;7.13;6.60;;;;;;;16.61;76.74;98056.66;5011224;28;20061;-60
2021/07/05 04:50:28;;;;;;;6.82;1.48;;;;;;;16.59;76.51;98061.28;5021423;28;20828;-61
2021/07/05 04:52:53;;;;;;;4.22;1.60;;;;;;;16.61;76.79;98059.28;5035303;28;20494;-61
2021/07/05 04:55:20;;;;;;;4.13;1.75;;;;;;;16.64;74.81;98073.81;5019642;28;20056;-61
2021/07/05 04:57:47;;;;;;;7.97;7.32;;;;;;;16.40;73.98;98025.28;5019804;28;20017;-61
2021/07/05 05:00:16;;;;;;;4.40;1.95;;;;;;;16.58;75.51;98053.59;5018478;28;20064;-60
2021/07/05 05:02:41;;;;;;;4.07;1.30;;;;;;;16.60;74.67;98060.25;5016506;28;20022;-60
2021/07/05 05:05:08;;;;;;;3.80;1.30;;;;;;;16.11;73.35;97993.88;5032601;28;20052;-61
2021/07/05 05:07:34;;;;;;;4.68;1.88;;;;;;;16.64;72.48;98073.81;5029154;28;20045;-61
2021/07/05 05:10:02;;;;;;;4.05;1.48;;;;;;;16.63;72.12;98066.94;5017851;28;20528;-61
2021/07/05 05:12:28;;;;;;;4.82;2.53;;;;;;;16.80;71.78;98067.41;5014841;28;20101;-61
2021/07/05 05:14:55;;;;;;;4.80;1.77;;;;;;;16.75;73.46;98070.59;5012076;28;20018;-61
2021/07/05 05:17:20;;;;;;;8.45;7.07;;;;;;;16.65;74.25;98072.81;5021220;28;20168;-61
2021/07/05 05:19:45;;;;;;;4.18;3.05;;;;;;;16.38;74.88;98022.03;5036817;28;20104;-61
2021/07/05 05:22:11;;;;;;;4.05;1.60;;;;;;;16.65;76.03;98057.06;5016170;28;20029;-61
2021/07/05 05:24:36;;;;;;;6.85;6.15;;;;;;;16.68;75.39;98054.84;5017782;28;20017;-61
2021/07/05 05:27:02;;;;;;;4.13;3.05;;;;;;;16.77;75.54;98068.59;5020809;28;20040;-61
2021/07/05 05:29:28;;;;;;;6.95;6.40;;;;;;;16.75;75.02;98080.31;5013557;28;20025;-61
2021/07/05 05:31:53;;;;;;;7.05;4.50;;;;;;;16.67;74.46;98068.97;5018985;28;20033;-61
2021/07/05 05:34:18;;;;;;;4.75;1.73;;;;;;;16.45;73.76;98025.50;5017930;28;20484;-61
2021/07/05 05:36:44;;;;;;;3.67;1.50;;;;;;;16.49;72.91;98031.97;5036464;28;20037;-61
2021/07/05 05:39:09;;;;;;;5.53;1.75;;;;;;;16.50;75.06;98031.78;5034248;28;20105;-61
2021/07/05 05:41:34;;;;;;;3.28;1.38;;;;;;;16.52;74.88;98035.00;5024052;28;20056;-61
2021/07/05 05:44:01;;;;;;;3.78;1.75;;;;;;;16.68;75.32;98070.59;5016918;28;20079;-61
2021/07/05 05:46:28;;;;;;;8.93;8.23;;;;;;;16.49;75.08;98039.84;5019637;28;20106;-61
2021/07/05 05:48:54;;;;;;;4.25;1.38;;;;;;;16.60;73.71;98068.13;5016501;28;20125;-61
2021/07/05 05:51:20;;;;;;;6.05;1.58;;;;;;;16.61;73.33;98054.03;5001488;28;20037;-61
2021/07/05 05:53:45;;;;;;;4.97;2.10;;;;;;;16.70;72.99;98081.72;5023221;28;20100;-61
2021/07/05 05:56:12;;;;;;;10.80;9.98;;;;;;;16.79;72.17;98081.53;5009302;28;20098;-61
2021/07/05 05:58:41;;;;;;;2.88;1.35;;;;;;;16.83;70.30;98075.72;5018133;28;20530;-61
2021/07/05 06:01:06;;;;;;;3.47;1.63;;;;;;;16.97;68.51;98067.88;5027287;28;20033;-61
2021/07/05 06:03:32;;;;;;;3.03;1.10;;;;;;;16.96;67.77;98053.09;5019528;28;20034;-61
2021/07/05 06:05:58;;;;;;;3.33;1.90;;;;;;;17.15;66.87;98085.69;5019465;28;20085;-61
2021/07/05 06:08:23;;;;;;;3.38;1.20;;;;;;;17.22;67.09;98076.81;5015852;28;20041;-60
2021/07/05 06:10:48;;;;;;;6.25;5.32;;;;;;;16.91;66.86;98043.22;5015612;28;20038;-61
2021/07/05 06:13:14;;;;;;;3.08;1.10;;;;;;;17.21;64.46;98067.31;5021544;28;20396;-61
2021/07/05 06:15:39;;;;;;;3.58;1.00;;;;;;;17.40;63.51;98075.41;5034040;28;20029;-61
2021/07/05 06:18:05;;;;;;;3.58;1.13;;;;;;;17.46;64.84;98091.16;5022713;28;20029;-61
2021/07/05 06:20:30;;;;;;;3.88;1.63;;;;;;;17.46;64.23;98099.06;5011597;28;20037;-61
2021/07/05 06:22:56;;;;;;;8.45;7.72;;;;;;;17.55;66.48;98107.56;5023437;28;20022;-61
2021/07/05 06:25:23;;;;;;;3.75;1.90;;;;;;;17.45;66.38;98105.34;5033099;28;20040;-61
2021/07/05 06:27:48;;;;;;;3.45;1.20;;;;;;;17.56;63.01;98090.78;5032470;28;20034;-61
2021/07/05 06:30:15;;;;;;;4.20;1.30;;;;;;;17.63;60.79;98081.09;5017435;28;20423;-61
2021/07/05 06:32:40;;;;;;;3.70;1.20;;;;;;;17.54;63.40;98063.06;5018134;28;20029;-61
2021/07/05 06:35:07;;;;;;;3.22;1.73;;;;;;;17.81;62.33;98101.47;4995540;28;20040;-61
2021/07/05 06:37:33;;;;;;;5.68;1.10;;;;;;;17.88;60.72;98098.06;5034845;28;20147;-61
2021/07/05 06:39:58;;;;;;;2.72;1.00;;;;;;;17.95;60.35;98099.69;5014913;28;20033;-61
2021/07/05 06:42:23;;;;;;;5.30;1.10;;;;;;;17.80;58.80;98057.00;5009662;28;20079;-61
2021/07/05 06:44:49;;;;;;;3.45;1.13;;;;;;;18.14;57.88;98086.69;5019838;28;20025;-61
2021/07/05 06:47:14;;;;;;;4.15;1.00;;;;;;;18.17;58.05;98091.56;5016511;28;20111;-61
2021/07/05 06:49:40;;;;;;;3.10;1.02;;;;;;;18.30;57.39;98086.25;5020451;28;20065;-61
2021/07/05 06:52:05;;;;;;;2.70;1.00;;;;;;;18.09;58.53;98045.22;5018932;28;20844;-60
2021/07/05 06:54:31;;;;;;;2.67;1.27;;;;;;;18.33;57.22;98077.16;5015783;28;20492;-61
2021/07/05 06:56:56;;;;;;;2.72;0.88;;;;;;;18.36;58.25;98087.22;5025319;28;20030;-61
2021/07/05 06:59:21;;;;;;;3.15;1.02;;;;;;;18.03;57.45;98017.94;5016447;28;20025;-60
2021/07/05 07:01:47;;;;;;;3.13;1.05;;;;;;;18.50;58.20;98065.13;5020387;28;20025;-61
2021/07/05 07:04:12;;;;;;;4.55;1.30;;;;;;;18.17;60.70;98036.31;5021842;28;20048;-60
2021/07/05 07:06:38;;;;;;;3.40;1.25;;;;;;;18.25;62.14;98075.53;5030586;28;20575;-61
2021/07/05 07:09:04;;;;;;;5.00;1.20;;;;;;;18.11;61.96;98068.69;5021082;28;20029;-61
2021/07/05 07:11:30;;;;;;;5.68;1.55;;;;;;;18.17;62.31;98099.44;5018757;28;20034;-61
2021/07/05 07:13:56;;;;;;;3.58;1.38;;;;;;;18.28;61.87;98111.16;5020985;28;20377;-61
2021/07/05 07:16:23;;;;;;;5.32;1.63;;;;;;;18.23;63.62;98106.50;5021129;28;20033;-61
2021/07/05 07:21:33;;;;;;;5.60;1.33;;;;;;;18.29;64.42;98126.75;5032148;28;20400;-61
2021/07/05 07:23:58;;;;;;;4.57;1.10;;;;;;;18.52;61.72;98115.72;5016837;28;20033;-61
2021/07/05 07:26:23;;;;;;;3.33;1.00;;;;;;;18.67;60.47;98112.84;5017483;28;20033;-61
2021/07/05 07:28:52;;;;;;;2.78;1.00;;;;;;;18.37;60.90;98073.88;5011643;28;20326;-61
2021/07/05 07:31:18;;;;;;;3.53;0.98;;;;;;;18.62;60.50;98108.22;5021581;28;20029;-61
2021/07/05 07:33:44;;;;;;;6.75;1.00;;;;;;;18.76;60.74;98111.56;5033301;28;20057;-61
2021/07/05 07:36:10;;;;;;;2.80;0.90;;;;;;;18.93;62.38;98116.41;5023910;28;20676;-61
2021/07/05 07:38:40;;;;;;;3.38;1.00;;;;;;;19.01;60.71;98105.63;5017232;28;20087;-61
2021/07/05 07:41:05;;;;;;;2.70;0.95;;;;;;;19.09;62.07;98108.00;5020663;28;20057;-61
2021/07/05 07:43:31;;;;;;;2.95;0.95;;;;;;;19.26;62.82;98113.59;5021924;28;20083;-60
2021/07/05 07:45:56;;;;;;;4.15;1.40;;;;;;;19.54;60.95;98109.75;5021400;28;20037;-61
2021/07/05 07:48:21;;;;;;;3.90;1.02;;;;;;;19.52;60.68;98093.34;5017523;28;20026;-61
2021/07/05 07:50:47;;;;;;;5.43;0.93;;;;;;;19.87;59.11;98084.94;5015723;28;20493;-61
2021/07/05 07:53:12;;;;;;;4.72;0.90;;;;;;;20.41;55.44;98122.16;5019394;28;20400;-61
2021/07/05 07:55:38;;;;;;;5.35;1.10;;;;;;;20.15;56.17;98119.59;5018979;28;20044;-61
2021/07/05 07:58:03;;;;;;;3.67;1.20;;;;;;;20.14;55.54;98127.72;5019337;28;20029;-61
2021/07/05 08:00:31;;;;;;;3.00;1.00;;;;;;;20.47;55.07;98119.44;5019150;28;20567;-61
2021/07/05 08:02:57;;;;;;;1.95;0.80;;;;;;;20.60;54.97;98115.03;5018579;28;20029;-60
2021/07/05 08:05:23;;;;;;;3.85;1.00;;;;;;;20.30;52.43;98070.91;5038208;28;20499;-61
2021/07/05 08:07:49;;;;;;;3.83;1.10;;;;;;;20.55;53.62;98081.38;5020613;28;20030;-60
2021/07/05 08:10:16;;;;;;;2.92;0.90;;;;;;;21.16;53.70;98111.31;5012732;28;20088;-61
2021/07/05 08:12:43;;;;;;;3.45;1.00;;;;;;;21.24;54.01;98092.47;5013930;28;20487;-61
2021/07/05 08:15:09;;;;;;;5.68;0.90;;;;;;;21.71;51.95;98105.00;5018804;28;20025;-61
2021/07/05 08:17:34;;;;;;;2.60;0.88;;;;;;;22.18;51.21;98115.59;5015086;28;20045;-61
2021/07/05 08:20:00;;;;;;;4.65;1.10;;;;;;;22.17;49.61;98110.50;5018104;28;20385;-61
2021/07/05 08:22:25;;;;;;;2.65;1.00;;;;;;;21.99;50.65;98088.41;5022161;28;20787;-61
2021/07/05 08:24:52;;;;;;;2.45;0.90;;;;;;;22.66;50.32;98118.97;5017272;28;20124;-60
2021/07/05 08:27:18;;;;;;;3.85;1.10;;;;;;;23.12;47.46;98119.06;5022380;28;20018;-61
2021/07/05 08:29:43;;;;;;;3.47;1.40;;;;;;;23.42;46.71;98116.94;5018674;28;20034;-61
2021/07/05 08:32:08;;;;;;;3.05;1.30;;;;;;;23.54;46.25;98110.75;5015491;28;20555;-61
2021/07/05 08:34:34;;;;;;;3.05;1.30;;;;;;;23.38;45.18;98083.16;5015385;28;20041;-60
2021/07/05 08:36:59;;;;;;;3.47;1.27;;;;;;;23.21;47.48;98083.16;5016523;28;20033;-61
2021/07/05 08:39:25;;;;;;;3.17;1.20;;;;;;;23.59;47.29;98108.19;5021605;28;20417;-61
2021/07/05 08:41:50;;;;;;;3.00;1.35;;;;;;;23.55;48.62;98115.81;5022068;28;20037;-61
2021/07/05 08:44:16;;;;;;;3.80;1.50;;;;;;;23.42;47.18;98124.91;5018335;28;20040;-61
2021/07/05 08:46:42;;;;;;;4.20;1.40;;;;;;;23.27;47.55;98116.66;5022279;28;20022;-61
2021/07/05 08:49:07;;;;;;;6.18;1.48;;;;;;;23.12;46.32;98081.94;5027873;28;20038;-61
2021/07/05 08:51:33;;;;;;;4.65;1.30;;;;;;;23.58;47.64;98123.31;4981582;28;20096;-61
2021/07/05 08:53:59;;;;;;;4.57;1.40;;;;;;;24.11;47.79;98136.31;5012526;28;20030;-61
2021/07/05 08:56:24;;;;;;;3.28;1.23;;;;;;;23.89;49.39;98130.94;5038697;28;20032;-61
2021/07/05 08:58:52;;;;;;;4.35;1.15;;;;;;;24.27;48.73;98116.09;5021267;28;20037;-61
2021/07/05 09:01:18;;;;;;;4.60;1.63;;;;;;;24.25;46.71;98092.41;5032493;28;20121;-61
2021/07/05 09:03:43;;;;;;;3.30;1.55;;;;;;;24.20;46.43;98079.06;5018927;28;20492;-61
2021/07/05 09:06:11;;;;;;;3.50;1.60;;;;;;;24.93;46.04;98102.78;5037647;28;20035;-61
2021/07/05 09:08:38;;;;;;;5.20;1.48;;;;;;;24.97;44.56;98108.41;5019958;28;20744;-61
2021/07/05 09:11:08;;;;;;;6.63;1.70;;;;;;;25.42;43.25;98100.09;5018428;28;20029;-61
2021/07/05 09:13:53;;;;;;;7.13;1.70;;;;;;;25.45;42.47;98088.16;5036858;28;20127;-61
2021/07/05 09:16:37;;;;;;;3.33;1.30;;;;;;;26.70;40.83;98101.94;5015545;28;20052;-61
2021/07/05 09:19:13;;;;;;;4.10;1.80;;;;;;;26.50;40.36;98060.78;5018802;28;20064;-61
2021/07/05 09:21:38;;;;;;;4.68;1.60;;;;;;;26.55;39.33;98063.47;5016008;28;20029;-61
2021/07/05 09:24:06;;;;;;;3.72;2.00;;;;;;;26.41;38.62;98059.69;5011201;28;20028;-61
2021/07/05 09:26:34;;;;;;;3.75;1.80;;;;;;;27.26;38.50;98051.38;5025697;28;20041;-61
2021/07/05 09:29:01;;;;;;;5.45;2.53;;;;;;;27.88;36.42;98057.44;5009097;28;20025;-61
2021/07/05 09:31:28;;;;;;;4.85;2.75;;;;;;;27.19;37.49;98058.81;5020982;28;20071;-61
2021/07/05 09:33:54;;;;;;;5.22;3.60;;;;;;;27.41;34.97;98088.72;5006941;28;20353;-61
2021/07/05 09:36:23;;;;;;;5.88;2.95;;;;;;;28.00;34.49;98089.22;5033479;28;20024;-61
2021/07/05 09:38:49;;;;;;;5.80;2.95;;;;;;;28.18;37.10;98082.47;5015672;28;20033;-61
2021/07/05 09:41:21;;;;;;;4.85;3.08;;;;;;;28.03;34.60;98026.44;5029288;28;20109;-62
2021/07/05 09:43:54;;;;;;;5.15;3.00;;;;;;;26.84;36.80;98079.84;5035047;28;20026;-60
2021/07/05 09:46:35;;;;;;;5.30;3.00;;;;;;;26.89;36.47;98087.06;5010197;28;20071;-61
2021/07/05 09:49:09;;;;;;;4.57;3.40;;;;;;;26.99;36.23;98088.94;5019914;28;20130;-61
2021/07/05 09:51:35;;;;;;;6.00;2.33;;;;;;;26.96;37.45;98090.28;5017256;28;20034;-61
2021/07/05 09:54:00;;;;;;;4.35;2.22;;;;;;;27.21;37.79;98092.16;5018959;28;20025;-61
2021/07/05 09:56:28;;;;;;;5.78;2.35;;;;;;;27.12;37.99;98090.28;5014040;28;20738;-61
2021/07/05 09:59:00;;;;;;;3.25;1.80;;;;;;;27.18;38.92;98082.03;5028308;28;20113;-61
2021/07/05 10:01:38;;;;;;;6.60;1.88;;;;;;;26.60;40.54;98087.50;5012506;28;20033;-61
2021/07/05 10:04:08;;;;;;;3.10;1.83;;;;;;;26.47;39.72;98091.44;5015075;28;20030;-61
2021/07/05 10:06:46;;;;;;;4.30;2.40;;;;;;;26.71;38.07;98088.34;5014048;28;20025;-61
2021/07/05 10:09:13;;;;;;;4.63;2.25;;;;;;;26.33;37.86;98084.19;5031156;28;20034;-61
2021/07/05 10:11:38;;;;;;;4.55;2.08;;;;;;;26.05;38.54;98089.66;5017192;28;20076;-61
2021/07/05 10:14:22;;;;;;;4.30;2.50;;;;;;;25.56;38.16;98083.72;5018397;28;20029;-61
2021/07/05 10:16:49;;;;;;;4.63;2.22;;;;;;;25.66;39.19;98089.88;5028248;28;20022;-61
2021/07/05 10:19:15;;;;;;;4.47;1.80;;;;;;;25.60;40.53;98098.09;5019169;28;20421;-62
2021/07/05 10:21:42;;;;;;;4.30;1.83;;;;;;;25.63;40.86;98086.97;5018832;28;20033;-61
2021/07/05 10:24:08;;;;;;;4.10;1.90;;;;;;;25.54;41.36;98093.78;5012737;28;20040;-61
2021/07/05 10:26:35;;;;;;;4.30;1.85;;;;;;;25.07;40.74;98087.25;5036911;28;20029;-61
2021/07/05 10:29:00;;;;;;;3.90;1.70;;;;;;;25.05;40.50;98087.50;5017632;28;20033;-60
2021/07/05 10:31:27;;;;;;;3.70;1.95;;;;;;;24.94;41.55;98083.94;5015395;28;20028;-61
2021/07/05 10:33:53;;;;;;;3.30;1.80;;;;;;;25.10;42.97;98094.75;5003232;28;20036;-61
2021/07/05 10:36:18;;;;;;;3.47;1.88;;;;;;;24.65;42.16;98054.13;5019783;28;20033;-61
2021/07/05 10:38:53;;;;;;;4.22;2.20;;;;;;;24.84;43.35;98097.13;5017546;28;20044;-61
2021/07/05 10:41:20;;;;;;;4.65;2.30;;;;;;;24.77;42.99;98088.56;5015254;28;20443;-61
2021/07/05 10:43:58;;;;;;;4.80;2.50;;;;;;;24.58;43.33;98036.78;5023075;28;20112;-61
2021/07/05 10:46:40;;;;;;;4.90;2.25;;;;;;;24.86;43.42;98100.34;5015481;28;20022;-61
2021/07/05 10:49:28;;;;;;;3.80;1.95;;;;;;;24.88;45.15;98102.75;5015768;28;20037;-62
2021/07/05 10:52:16;;;;;;;4.47;1.80;;;;;;;24.85;44.37;98090.75;5014802;28;20404;-61
2021/07/05 10:54:50;;;;;;;3.90;2.00;;;;;;;24.98;43.89;98108.19;5029595;28;20125;-62
2021/07/05 10:57:18;;;;;;;3.80;1.90;;;;;;;24.82;43.43;98091.25;5021225;28;20033;-61
2021/07/05 10:59:46;;;;;;;4.20;2.20;;;;;;;24.87;43.82;98061.25;5017139;28;20029;-61
2021/07/05 11:02:31;;;;;;;4.13;2.08;;;;;;;24.99;44.30;98095.66;5020135;28;20041;-61
2021/07/05 11:04:56;;;;;;;5.20;1.83;;;;;;;24.86;45.90;98092.38;5020797;28;20495;-62
2021/07/05 11:07:24;;;;;;;4.85;1.95;;;;;;;24.82;44.41;98093.91;5018848;28;20300;-61
2021/07/05 11:09:51;;;;;;;4.55;1.70;;;;;;;24.86;45.12;98096.88;5032365;28;20053;-61
2021/07/05 11:12:30;;;;;;;3.58;1.80;;;;;;;25.06;45.92;98097.09;5011863;28;20026;-62
2021/07/05 11:14:56;;;;;;;3.95;1.90;;;;;;;25.03;44.83;98091.47;5012550;28;20515;-61
2021/07/05 11:17:23;;;;;;;4.13;2.00;;;;;;;25.04;44.30;98088.53;5019474;28;20025;-61
2021/07/05 11:19:56;;;;;;;3.67;1.75;;;;;;;25.16;44.65;98095.59;5006271;28;20401;-61
2021/07/05 11:22:29;;;;;;;4.75;1.88;;;;;;;25.04;44.41;98048.66;5016282;28;20022;-62
2021/07/05 11:24:59;;;;;;;5.57;2.00;;;;;;;25.18;43.91;98085.50;5011414;28;20053;-61
2021/07/05 11:27:47;;;;;;;3.75;2.28;;;;;;;25.28;43.77;98096.25;5020568;28;20026;-61
2021/07/05 11:30:16;;;;;;;5.10;1.97;;;;;;;25.18;44.37;98102.25;5018453;28;20172;-61
2021/07/05 11:32:44;;;;;;;4.55;2.05;;;;;;;25.32;44.29;98102.69;5020674;28;20792;-61